createdAt,value
2023-04-09T00:00:30.164Z,7.12
2023-04-09T00:02:57.926Z,7.27
2023-04-09T00:05:25.737Z,7.32
2023-04-09T00:07:53.496Z,7.32
2023-04-09T00:10:21.163Z,7.31
2023-04-09T00:12:50.364Z,7.28
2023-04-09T00:15:30.090Z,7.37
2023-04-09T00:17:59.236Z,7.41
2023-04-09T00:20:26.991Z,7.48
2023-04-09T00:22:56.262Z,7.25
2023-04-09T00:25:24.030Z,7.33
2023-04-09T00:27:53.147Z,7.15
2023-04-09T00:30:21.432Z,7.28
2023-04-09T00:32:49.387Z,7.30
2023-04-09T00:35:17.541Z,7.27
2023-04-09T00:37:45.301Z,7.26
2023-04-09T00:40:13.153Z,7.13
2023-04-09T00:42:41.619Z,7.13
2023-04-09T00:45:11.532Z,7.12
2023-04-09T00:47:39.309Z,7.17
2023-04-09T00:50:07.787Z,7.22
2023-04-09T00:52:35.876Z,7.18
2023-04-09T00:55:05.898Z,7.18
2023-04-09T00:57:33.659Z,7.14
2023-04-09T01:00:01.301Z,7.06
2023-04-09T01:02:31.017Z,7.01
2023-04-09T01:04:59.247Z,7.03
2023-04-09T01:07:40.372Z,6.97
2023-04-09T01:10:18.037Z,7.10
2023-04-09T01:12:55.653Z,7.06
2023-04-09T01:15:27.640Z,7.05
2023-04-09T01:18:03.841Z,7.11
2023-04-09T01:20:36.574Z,7.07
2023-04-09T01:23:15.458Z,7.08
2023-04-09T01:25:53.356Z,6.93
2023-04-09T01:28:24.927Z,6.92
2023-04-09T01:30:57.762Z,6.96
2023-04-09T01:33:26.577Z,7.02
2023-04-09T01:35:55.935Z,6.92
2023-04-09T01:38:25.174Z,6.93
2023-04-09T01:40:53.796Z,6.97
2023-04-09T01:43:23.428Z,7.02
2023-04-09T01:45:52.550Z,6.79
2023-04-09T01:48:21.549Z,6.94
2023-04-09T01:50:49.893Z,6.99
2023-04-09T01:53:17.956Z,6.98
2023-04-09T01:55:45.650Z,6.96
2023-04-09T01:58:13.390Z,6.90
2023-04-09T02:00:50.710Z,6.87
2023-04-09T02:03:22.500Z,6.77
2023-04-09T02:05:56.869Z,6.69
2023-04-09T02:08:26.227Z,6.69
2023-04-09T02:10:59.186Z,6.66
2023-04-09T02:13:28.090Z,6.81
2023-04-09T02:15:58.927Z,6.78
2023-04-09T02:18:28.623Z,6.73
2023-04-09T02:20:56.860Z,6.78
2023-04-09T02:23:25.227Z,6.64
2023-04-09T02:25:53.935Z,6.60
2023-04-09T02:28:21.616Z,6.59
2023-04-09T02:30:49.398Z,6.56
2023-04-09T02:33:18.422Z,6.53
2023-04-09T02:35:46.124Z,6.37
2023-04-09T02:38:16.000Z,6.41
2023-04-09T02:40:43.923Z,6.42
2023-04-09T02:43:11.816Z,6.39
2023-04-09T02:45:39.775Z,6.38
2023-04-09T02:48:07.457Z,6.28
2023-04-09T02:50:36.549Z,6.28
2023-04-09T02:53:04.404Z,6.24
2023-04-09T02:55:32.372Z,6.13
2023-04-09T02:58:00.054Z,6.11
2023-04-09T03:00:27.743Z,6.08
2023-04-09T03:02:55.924Z,6.03
2023-04-09T03:05:23.757Z,5.98
2023-04-09T03:07:52.926Z,5.99
2023-04-09T03:10:20.726Z,5.86
2023-04-09T03:12:48.497Z,5.85
2023-04-09T03:15:16.798Z,5.85
2023-04-09T03:17:44.484Z,5.77
2023-04-09T03:20:12.423Z,5.76
2023-04-09T03:22:40.879Z,5.67
2023-04-09T03:25:10.770Z,5.67
2023-04-09T03:27:38.441Z,5.56
2023-04-09T03:30:06.991Z,5.54
2023-04-09T03:32:34.694Z,5.63
2023-04-09T03:35:02.416Z,5.61
2023-04-09T03:37:30.180Z,5.70
2023-04-09T03:39:57.889Z,5.62
2023-04-09T03:42:27.037Z,5.65
2023-04-09T03:44:54.844Z,5.54
2023-04-09T03:47:22.613Z,5.54
2023-04-09T03:49:50.306Z,5.52
2023-04-09T03:52:17.986Z,5.51
2023-04-09T03:54:45.664Z,5.44
2023-04-09T03:57:13.362Z,5.39
2023-04-09T03:59:42.379Z,5.32
2023-04-09T04:02:10.332Z,5.24
2023-04-09T04:04:38.353Z,5.24
2023-04-09T04:07:06.416Z,5.20
2023-04-09T04:09:34.424Z,5.12
2023-04-09T04:12:03.409Z,5.19
2023-04-09T04:14:31.329Z,5.18
2023-04-09T04:17:00.566Z,5.08
2023-04-09T04:19:28.446Z,5.04
2023-04-09T04:21:56.255Z,4.99
2023-04-09T04:24:24.151Z,5.02
2023-04-09T04:26:52.102Z,4.98
2023-04-09T04:29:20.154Z,4.99
2023-04-09T04:31:48.012Z,4.87
2023-04-09T04:34:17.465Z,4.94
2023-04-09T04:36:45.345Z,4.87
2023-04-09T04:39:13.216Z,4.87
2023-04-09T04:41:41.188Z,4.79
2023-04-09T04:44:08.835Z,4.79
2023-04-09T04:46:36.506Z,4.79
2023-04-09T04:49:04.296Z,4.74
2023-04-09T04:51:33.403Z,4.74
2023-04-09T04:54:01.301Z,4.70
2023-04-09T04:56:29.238Z,4.64
2023-04-09T04:58:57.106Z,4.72
2023-04-09T05:01:24.954Z,4.63
2023-04-09T05:03:53.628Z,4.51
2023-04-09T05:06:21.515Z,4.57
2023-04-09T05:08:51.232Z,4.63
2023-04-09T05:11:19.246Z,4.56
2023-04-09T05:13:47.055Z,4.57
2023-04-09T05:16:18.971Z,4.54
2023-04-09T05:18:47.160Z,4.61
2023-04-09T05:21:15.078Z,4.60
2023-04-09T05:23:42.905Z,4.59
2023-04-09T05:26:12.169Z,4.66
2023-04-09T05:28:40.186Z,4.69
2023-04-09T05:31:12.847Z,4.75
2023-04-09T05:33:41.188Z,4.71
2023-04-09T05:36:09.463Z,4.80
2023-04-09T05:38:37.195Z,4.74
2023-04-09T05:41:04.877Z,4.65
2023-04-09T05:43:33.840Z,4.62
2023-04-09T05:46:01.597Z,4.75
2023-04-09T05:48:29.409Z,4.82
2023-04-09T05:50:59.026Z,4.84
2023-04-09T05:53:28.374Z,4.84
2023-04-09T05:55:56.373Z,4.89
2023-04-09T05:58:24.370Z,5.03
2023-04-09T06:00:53.589Z,5.05
2023-04-09T06:03:21.648Z,5.11
2023-04-09T06:05:49.616Z,4.98
2023-04-09T06:08:17.428Z,5.18
2023-04-09T06:10:45.206Z,5.21
2023-04-09T06:13:13.075Z,5.34
2023-04-09T06:15:41.167Z,5.45
2023-04-09T06:18:10.573Z,5.63
2023-04-09T06:20:38.341Z,5.40
2023-04-09T06:23:06.482Z,5.57
2023-04-09T06:25:34.373Z,5.42
2023-04-09T06:28:03.049Z,5.58
2023-04-09T06:30:31.989Z,5.70
2023-04-09T06:32:59.917Z,6.03
2023-04-09T06:35:28.966Z,6.42
2023-04-09T06:37:56.624Z,8.02
2023-04-09T06:40:24.714Z,9.37
2023-04-09T06:42:52.404Z,11.57
2023-04-09T06:45:20.112Z,11.53
2023-04-09T06:47:48.383Z,11.05
2023-04-09T06:50:16.232Z,12.17
2023-04-09T06:52:45.539Z,11.79
2023-04-09T06:55:13.914Z,13.52
2023-04-09T06:57:42.029Z,15.25
2023-04-09T07:00:10.944Z,16.17
2023-04-09T07:02:39.063Z,17.34
2023-04-09T07:05:07.864Z,17.85
2023-04-09T07:07:35.558Z,18.01
2023-04-09T07:10:06.417Z,17.63
2023-04-09T07:12:35.719Z,19.39
2023-04-09T07:15:05.757Z,19.42
2023-04-09T07:17:33.907Z,20.57
2023-04-09T07:20:01.923Z,17.54
2023-04-09T07:22:31.183Z,18.74
2023-04-09T07:24:59.010Z,18.87
2023-04-09T07:27:29.238Z,18.58
2023-04-09T07:29:57.868Z,19.46
2023-04-09T07:32:26.986Z,19.05
2023-04-09T07:34:55.139Z,19.05
2023-04-09T07:37:23.281Z,19.40
2023-04-09T07:39:51.509Z,19.10
2023-04-09T07:42:19.099Z,18.99
2023-04-09T07:44:48.098Z,19.16
2023-04-09T07:47:16.042Z,18.36
2023-04-09T07:49:43.757Z,18.35
2023-04-09T07:52:11.632Z,19.10
2023-04-09T07:54:39.293Z,19.76
2023-04-09T07:57:07.222Z,19.95
2023-04-09T07:59:36.309Z,19.52
2023-04-09T08:02:05.574Z,18.91
2023-04-09T08:04:33.426Z,19.68
2023-04-09T08:07:01.280Z,18.66
2023-04-09T08:09:28.939Z,18.94
2023-04-09T08:11:57.207Z,19.87
2023-04-09T08:14:24.858Z,22.00
2023-04-09T08:16:52.585Z,21.92
2023-04-09T08:19:21.695Z,21.01
2023-04-09T08:21:49.694Z,23.00
2023-04-09T08:24:18.237Z,20.14
2023-04-09T08:26:46.038Z,21.07
2023-04-09T08:29:14.570Z,22.39
2023-04-09T08:31:43.020Z,22.70
2023-04-09T08:34:10.716Z,22.37
2023-04-09T08:36:39.757Z,24.38
2023-04-09T08:39:07.412Z,21.21
2023-04-09T08:41:37.212Z,22.12
2023-04-09T08:44:05.048Z,20.32
2023-04-09T08:46:32.724Z,21.94
2023-04-09T08:49:00.370Z,21.95
2023-04-09T08:51:28.755Z,22.49
2023-04-09T08:54:01.478Z,20.61
2023-04-09T08:56:31.974Z,21.26
2023-04-09T08:59:00.194Z,20.96
2023-04-09T09:01:30.238Z,20.44
2023-04-09T09:04:00.994Z,19.56
2023-04-09T09:06:32.886Z,20.20
2023-04-09T09:09:04.823Z,19.47
2023-04-09T09:11:32.640Z,17.31
2023-04-09T09:14:02.756Z,19.11
2023-04-09T09:16:31.401Z,21.59
2023-04-09T09:19:00.261Z,18.97
2023-04-09T09:21:29.980Z,18.70
2023-04-09T09:23:58.567Z,20.26
2023-04-09T09:26:29.310Z,22.29
2023-04-09T09:28:58.885Z,22.04
2023-04-09T09:31:27.128Z,23.07
2023-04-09T09:33:55.405Z,23.21
2023-04-09T09:36:33.332Z,25.51
2023-04-09T09:39:05.317Z,21.05
2023-04-09T09:41:34.365Z,22.07
2023-04-09T09:44:03.371Z,23.14
2023-04-09T09:46:35.085Z,20.89
2023-04-09T09:49:02.858Z,23.55
2023-04-09T09:51:33.816Z,23.71
2023-04-09T09:54:04.897Z,23.99
2023-04-09T09:56:38.841Z,22.88
2023-04-09T09:59:11.544Z,23.00
2023-04-09T10:01:42.403Z,21.25
2023-04-09T10:04:14.857Z,19.18
2023-04-09T10:06:45.156Z,18.35
2023-04-09T10:09:13.954Z,18.63
2023-04-09T10:11:45.582Z,16.21
2023-04-09T10:14:14.630Z,17.82
2023-04-09T10:16:42.975Z,18.07
2023-04-09T10:19:14.146Z,19.12
2023-04-09T10:21:48.516Z,19.69
2023-04-09T10:24:17.462Z,19.13
2023-04-09T10:26:46.936Z,18.42
2023-04-09T10:29:16.521Z,18.67
2023-04-09T10:31:53.348Z,17.72
2023-04-09T10:34:23.437Z,18.11
2023-04-09T10:36:54.007Z,19.46
2023-04-09T10:39:22.254Z,18.34
2023-04-09T10:41:51.876Z,16.52
2023-04-09T10:44:23.460Z,16.67
2023-04-09T10:46:54.077Z,17.04
2023-04-09T10:49:23.863Z,17.14
2023-04-09T10:51:55.606Z,15.78
2023-04-09T10:54:45.950Z,15.19
2023-04-09T10:57:22.496Z,14.46
2023-04-09T10:59:52.553Z,14.20
2023-04-09T11:03:01.715Z,13.61
2023-04-09T11:05:34.037Z,14.93
2023-04-09T11:08:07.716Z,17.11
2023-04-09T11:10:35.661Z,16.80
2023-04-09T11:13:05.080Z,15.95
2023-04-09T11:15:35.392Z,16.96
2023-04-09T11:18:03.683Z,17.37
2023-04-09T11:20:32.045Z,16.76
2023-04-09T11:23:00.692Z,15.82
2023-04-09T11:25:29.508Z,15.44
2023-04-09T11:27:57.248Z,15.43
2023-04-09T11:30:26.564Z,17.16
2023-04-09T11:32:54.539Z,17.16
2023-04-09T11:35:24.216Z,15.86
2023-04-09T11:37:52.431Z,14.90
2023-04-09T11:40:21.612Z,14.62
2023-04-09T11:42:50.956Z,14.38
2023-04-09T11:45:19.457Z,14.57
2023-04-09T11:47:48.968Z,14.89
2023-04-09T11:50:17.186Z,16.24
2023-04-09T11:52:46.160Z,17.50
2023-04-09T11:55:24.224Z,17.63
2023-04-09T11:57:54.255Z,18.41
2023-04-09T12:00:22.231Z,18.63
2023-04-09T12:02:52.992Z,18.12
2023-04-09T12:05:25.831Z,17.38
2023-04-09T12:07:58.850Z,16.44
2023-04-09T12:10:29.038Z,17.31
2023-04-09T12:13:01.767Z,18.27
2023-04-09T12:15:33.557Z,18.05
2023-04-09T12:18:03.380Z,17.98
2023-04-09T12:20:33.172Z,16.45
2023-04-09T12:23:03.460Z,15.43
2023-04-09T12:25:32.027Z,14.75
2023-04-09T12:28:00.000Z,14.98
2023-04-09T12:30:27.716Z,15.10
2023-04-09T12:32:55.830Z,14.82
2023-04-09T12:35:24.922Z,14.92
2023-04-09T12:37:52.842Z,15.11
2023-04-09T12:40:21.308Z,15.78
2023-04-09T12:42:49.661Z,15.16
2023-04-09T12:45:19.254Z,16.16
2023-04-09T12:47:47.460Z,16.46
2023-04-09T12:50:16.207Z,16.26
2023-04-09T12:52:45.881Z,14.79
2023-04-09T12:55:15.069Z,14.98
2023-04-09T12:57:45.321Z,15.28
2023-04-09T13:00:14.029Z,14.74
2023-04-09T13:02:41.990Z,14.65
2023-04-09T13:05:10.423Z,14.95
2023-04-09T13:07:38.217Z,14.85
2023-04-09T13:10:08.445Z,14.80
2023-04-09T13:12:36.526Z,14.36
2023-04-09T13:15:04.448Z,14.54
2023-04-09T13:17:32.281Z,14.55
2023-04-09T13:19:59.946Z,14.93
2023-04-09T13:22:27.628Z,15.12
2023-04-09T13:24:55.584Z,15.36
2023-04-09T13:27:24.671Z,14.79
2023-04-09T13:29:52.495Z,14.75
2023-04-09T13:32:21.995Z,14.73
2023-04-09T13:34:49.802Z,14.79
2023-04-09T13:37:17.813Z,15.05
2023-04-09T13:39:45.843Z,15.38
2023-04-09T13:42:14.324Z,14.50
2023-04-09T13:44:45.393Z,14.66
2023-04-09T13:47:13.958Z,15.48
2023-04-09T13:49:42.050Z,15.42
2023-04-09T13:52:10.586Z,15.26
2023-04-09T13:54:38.554Z,15.29
2023-04-09T13:57:06.442Z,15.04
2023-04-09T13:59:34.183Z,15.52
2023-04-09T14:02:03.373Z,15.39
2023-04-09T14:04:31.391Z,14.94
2023-04-09T14:06:59.073Z,14.62
2023-04-09T14:09:26.732Z,14.62
2023-04-09T14:11:56.098Z,14.20
2023-04-09T14:14:23.955Z,14.22
2023-04-09T14:16:51.595Z,14.28
2023-04-09T14:19:20.577Z,14.41
2023-04-09T14:21:48.331Z,14.54
2023-04-09T14:24:16.022Z,14.44
2023-04-09T14:26:43.662Z,14.47
2023-04-09T14:29:11.332Z,14.62
2023-04-09T14:31:38.973Z,14.73
2023-04-09T14:34:06.677Z,14.54
2023-04-09T14:36:35.848Z,14.70
2023-04-09T14:39:03.544Z,14.70
2023-04-09T14:41:34.063Z,14.44
2023-04-09T14:44:01.709Z,15.05
2023-04-09T14:46:29.394Z,14.96
2023-04-09T14:48:57.112Z,15.14
2023-04-09T14:51:24.779Z,15.25
2023-04-09T14:53:53.824Z,14.97
2023-04-09T14:56:21.814Z,15.31
2023-04-09T14:58:49.508Z,15.22
2023-04-09T15:01:17.304Z,15.24
2023-04-09T15:03:45.337Z,15.25
2023-04-09T15:06:13.406Z,15.27
2023-04-09T15:08:41.081Z,15.35
2023-04-09T15:11:16.014Z,15.01
2023-04-09T15:13:43.676Z,14.08
2023-04-09T15:16:11.464Z,14.36
2023-04-09T15:18:39.196Z,14.36
2023-04-09T15:21:07.196Z,14.32
2023-04-09T15:23:35.727Z,14.36
2023-04-09T15:26:03.350Z,14.21
2023-04-09T15:28:32.496Z,13.90
2023-04-09T15:31:00.210Z,13.83
2023-04-09T15:33:28.054Z,13.78
2023-04-09T15:35:55.782Z,13.77
2023-04-09T15:38:25.189Z,13.89
2023-04-09T15:40:52.960Z,13.77
2023-04-09T15:43:20.558Z,13.68
2023-04-09T15:45:49.645Z,13.71
2023-04-09T15:48:17.711Z,14.07
2023-04-09T15:50:45.381Z,14.28
2023-04-09T15:53:14.034Z,14.44
2023-04-09T15:55:41.743Z,14.35
2023-04-09T15:58:09.457Z,14.32
2023-04-09T16:00:37.190Z,14.11
2023-04-09T16:03:06.225Z,14.16
2023-04-09T16:05:33.909Z,14.33
2023-04-09T16:08:02.135Z,14.58
2023-04-09T16:10:29.747Z,14.52
2023-04-09T16:12:57.532Z,14.67
2023-04-09T16:15:25.239Z,14.24
2023-04-09T16:17:53.207Z,14.39
2023-04-09T16:20:23.031Z,14.14
2023-04-09T16:22:51.388Z,14.11
2023-04-09T16:25:19.709Z,14.08
2023-04-09T16:27:50.035Z,13.96
2023-04-09T16:30:18.455Z,13.81
2023-04-09T16:32:46.974Z,13.66
2023-04-09T16:35:15.712Z,13.60
2023-04-09T16:37:45.132Z,13.22
2023-04-09T16:40:13.297Z,13.20
2023-04-09T16:42:41.008Z,13.30
2023-04-09T16:45:09.660Z,13.46
2023-04-09T16:47:37.356Z,13.13
2023-04-09T16:50:10.388Z,13.14
2023-04-09T16:52:38.397Z,13.09
2023-04-09T16:55:08.697Z,13.13
2023-04-09T16:57:36.468Z,13.04
2023-04-09T17:00:05.055Z,12.87
2023-04-09T17:02:32.924Z,12.83
2023-04-09T17:05:01.021Z,12.74
2023-04-09T17:07:28.683Z,12.76
2023-04-09T17:09:57.001Z,12.69
2023-04-09T17:12:26.726Z,12.76
2023-04-09T17:14:54.633Z,12.66
2023-04-09T17:17:22.433Z,12.64
2023-04-09T17:19:50.157Z,12.54
2023-04-09T17:22:17.920Z,12.57
2023-04-09T17:24:45.557Z,12.52
2023-04-09T17:27:13.204Z,12.54
2023-04-09T17:29:42.813Z,12.49
2023-04-09T17:32:10.444Z,12.52
2023-04-09T17:34:38.098Z,12.42
2023-04-09T17:37:05.725Z,12.35
2023-04-09T17:39:33.352Z,12.30
2023-04-09T17:42:03.308Z,12.18
2023-04-09T17:44:35.027Z,12.17
2023-04-09T17:47:04.175Z,12.14
2023-04-09T17:49:32.655Z,12.10
2023-04-09T17:52:00.500Z,12.10
2023-04-09T17:54:33.386Z,12.03
2023-04-09T17:57:01.259Z,11.98
2023-04-09T17:59:28.955Z,11.92
2023-04-09T18:01:56.784Z,11.83
2023-04-09T18:04:26.244Z,11.81
2023-04-09T18:06:55.399Z,11.82
2023-04-09T18:09:23.043Z,11.88
2023-04-09T18:11:54.735Z,11.73
2023-04-09T18:14:22.373Z,11.67
2023-04-09T18:16:50.129Z,11.57
2023-04-09T18:19:17.757Z,11.55
2023-04-09T18:21:46.765Z,11.52
2023-04-09T18:24:14.489Z,11.50
2023-04-09T18:26:42.098Z,11.49
2023-04-09T18:29:09.754Z,11.43
2023-04-09T18:31:37.447Z,11.41
2023-04-09T18:34:05.136Z,11.35
2023-04-09T18:36:32.753Z,11.39
2023-04-09T18:39:02.144Z,11.33
2023-04-09T18:41:30.506Z,11.34
2023-04-09T18:43:58.253Z,11.15
2023-04-09T18:46:26.567Z,11.24
2023-04-09T18:48:54.509Z,11.07
2023-04-09T18:51:22.369Z,11.14
2023-04-09T18:53:53.793Z,10.98
2023-04-09T18:56:22.949Z,11.02
2023-04-09T18:58:51.938Z,11.01
2023-04-09T19:01:20.677Z,10.98
2023-04-09T19:03:48.697Z,10.90
2023-04-09T19:06:18.455Z,10.96
2023-04-09T19:08:46.474Z,10.91
2023-04-09T19:11:14.924Z,10.89
2023-04-09T19:13:43.930Z,10.76
2023-04-09T19:16:12.248Z,10.80
2023-04-09T19:18:39.942Z,10.86
2023-04-09T19:21:08.709Z,10.82
2023-04-09T19:23:36.425Z,10.76
2023-04-09T19:26:05.496Z,10.73
2023-04-09T19:28:33.361Z,10.73
2023-04-09T19:31:03.547Z,10.51
2023-04-09T19:33:31.783Z,10.48
2023-04-09T19:35:59.538Z,10.56
2023-04-09T19:38:27.314Z,10.55
2023-04-09T19:40:55.389Z,10.48
2023-04-09T19:43:23.245Z,10.43
2023-04-09T19:45:51.100Z,10.41
2023-04-09T19:48:20.421Z,10.26
2023-04-09T19:50:48.935Z,10.27
2023-04-09T19:53:16.643Z,10.21
2023-04-09T19:55:44.737Z,10.11
2023-04-09T19:58:12.466Z,10.13
2023-04-09T20:00:40.292Z,10.06
2023-04-09T20:03:08.212Z,9.90
2023-04-09T20:05:37.415Z,9.98
2023-04-09T20:08:05.526Z,9.92
2023-04-09T20:10:33.292Z,9.97
2023-04-09T20:13:01.656Z,9.95
2023-04-09T20:15:29.506Z,9.95
2023-04-09T20:17:57.641Z,9.89
2023-04-09T20:20:27.778Z,9.86
2023-04-09T20:22:57.637Z,9.77
2023-04-09T20:25:25.984Z,9.69
2023-04-09T20:27:54.181Z,9.51
2023-04-09T20:30:22.543Z,9.53
2023-04-09T20:32:50.385Z,9.52
2023-04-09T20:35:18.194Z,9.38
2023-04-09T20:37:48.388Z,9.33
2023-04-09T20:40:19.713Z,9.21
2023-04-09T20:42:47.433Z,8.96
2023-04-09T20:45:15.741Z,8.88
2023-04-09T20:47:43.562Z,8.95
2023-04-09T20:50:12.193Z,8.79
2023-04-09T20:52:39.981Z,8.79
2023-04-09T20:55:08.391Z,8.75
2023-04-09T20:57:37.521Z,8.76
2023-04-09T21:00:06.270Z,8.78
2023-04-09T21:02:34.164Z,8.71
2023-04-09T21:05:11.705Z,8.73
2023-04-09T21:07:49.400Z,8.55
2023-04-09T21:10:17.300Z,8.38
2023-04-09T21:12:46.464Z,8.40
2023-04-09T21:15:14.196Z,8.40
2023-04-09T21:17:41.958Z,8.16
2023-04-09T21:20:10.807Z,8.17
2023-04-09T21:22:38.503Z,8.13
2023-04-09T21:25:07.298Z,8.10
2023-04-09T21:27:35.113Z,8.15
2023-04-09T21:30:04.541Z,8.16
2023-04-09T21:32:32.642Z,8.12
2023-04-09T21:35:00.472Z,8.12
2023-04-09T21:37:28.903Z,8.17
2023-04-09T21:39:56.590Z,8.09
2023-04-09T21:42:24.250Z,8.00
2023-04-09T21:44:51.996Z,7.78
2023-04-09T21:47:21.126Z,7.72
2023-04-09T21:49:50.205Z,7.55
2023-04-09T21:52:18.050Z,7.56
2023-04-09T21:54:45.770Z,7.59
2023-04-09T21:57:13.597Z,7.54
2023-04-09T21:59:42.193Z,7.47
2023-04-09T22:02:10.682Z,7.40
2023-04-09T22:04:42.499Z,7.33
2023-04-09T22:07:11.246Z,7.31
2023-04-09T22:09:39.291Z,7.26
2023-04-09T22:12:07.227Z,7.21
2023-04-09T22:14:35.043Z,7.31
2023-04-09T22:17:03.043Z,7.29
2023-04-09T22:19:31.941Z,7.39
2023-04-09T22:22:01.043Z,7.29
2023-04-09T22:24:29.675Z,7.41
2023-04-09T22:26:58.932Z,7.33
2023-04-09T22:29:27.206Z,7.20
2023-04-09T22:31:54.966Z,7.15
2023-04-09T22:34:22.665Z,7.02
2023-04-09T22:36:50.724Z,6.97
2023-04-09T22:39:19.795Z,7.07
2023-04-09T22:41:47.621Z,7.06
2023-04-09T22:44:15.322Z,6.98
2023-04-09T22:46:43.248Z,7.02
2023-04-09T22:49:11.481Z,7.07
2023-04-09T22:51:41.305Z,6.96
2023-04-09T22:54:09.611Z,6.93
2023-04-09T22:56:38.650Z,6.90
2023-04-09T22:59:06.659Z,6.93
2023-04-09T23:01:34.598Z,6.91
2023-04-09T23:04:02.557Z,7.01
2023-04-09T23:06:30.872Z,7.00
2023-04-09T23:08:59.746Z,6.98
2023-04-09T23:11:27.604Z,6.80
2023-04-09T23:13:56.680Z,6.84
2023-04-09T23:16:24.449Z,6.81
2023-04-09T23:18:52.499Z,6.93
2023-04-09T23:21:20.743Z,6.80
2023-04-09T23:23:48.966Z,6.70
2023-04-09T23:26:16.698Z,6.74
2023-04-09T23:28:44.413Z,6.64
2023-04-09T23:31:13.497Z,6.65
2023-04-09T23:33:41.258Z,6.44
2023-04-09T23:36:09.520Z,6.46
2023-04-09T23:38:37.276Z,6.39
2023-04-09T23:41:05.582Z,6.44
2023-04-09T23:43:33.265Z,6.40
2023-04-09T23:46:01.124Z,6.25
2023-04-09T23:48:30.378Z,6.13
2023-04-09T23:50:58.095Z,6.17
2023-04-09T23:53:26.328Z,6.21
2023-04-09T23:55:54.073Z,6.06
2023-04-09T23:58:22.518Z,6.04
